createdAt,value
2022-10-20T00:06:58.829Z,100.00
2022-10-20T00:17:01.566Z,100.00
2022-10-20T00:27:03.374Z,100.00
2022-10-20T00:37:04.978Z,100.00
2022-10-20T00:47:11.852Z,100.00
2022-10-20T00:57:13.688Z,100.00
2022-10-20T01:07:16.372Z,100.00
2022-10-20T01:17:31.774Z,100.00
2022-10-20T01:27:48.883Z,100.00
2022-10-20T01:38:12.516Z,100.00
2022-10-20T01:48:18.317Z,100.00
2022-10-20T01:58:29.580Z,100.00
2022-10-20T02:09:02.315Z,100.00
2022-10-20T02:19:07.857Z,100.00
2022-10-20T02:29:15.874Z,100.00
2022-10-20T02:39:17.461Z,100.00
2022-10-20T02:49:20.565Z,100.00
2022-10-20T02:59:22.313Z,100.00
2022-10-20T03:09:24.104Z,100.00
2022-10-20T03:19:25.996Z,100.00
2022-10-20T03:29:32.850Z,100.00
2022-10-20T03:39:34.568Z,100.00
2022-10-20T03:49:36.148Z,100.00
2022-10-20T03:59:37.857Z,100.00
2022-10-20T04:09:39.542Z,100.00
2022-10-20T04:19:41.307Z,100.00
2022-10-20T04:29:43.011Z,100.00
2022-10-20T04:39:44.800Z,100.00
2022-10-20T04:49:46.574Z,100.00
2022-10-20T04:59:48.235Z,100.00
2022-10-20T05:09:49.763Z,100.00
2022-10-20T05:19:52.305Z,100.00
2022-10-20T05:29:55.160Z,100.00
2022-10-20T05:39:56.781Z,100.00
2022-10-20T05:49:58.368Z,100.00
2022-10-20T05:59:59.914Z,100.00
2022-10-20T06:10:01.659Z,100.00
2022-10-20T06:20:03.616Z,100.00
2022-10-20T06:30:05.832Z,100.00
2022-10-20T06:40:07.782Z,100.00
2022-10-20T06:50:09.718Z,100.00
2022-10-20T07:00:11.724Z,100.00
2022-10-20T07:10:13.390Z,100.00
2022-10-20T07:20:15.031Z,100.00
2022-10-20T07:30:17.916Z,100.00
2022-10-20T07:50:32.211Z,98.53
2022-10-20T08:00:33.989Z,89.45
2022-10-20T08:10:35.616Z,83.45
2022-10-20T08:20:42.258Z,77.26
2022-10-20T08:30:44.334Z,75.63
2022-10-20T08:40:46.007Z,70.70
2022-10-20T08:50:50.588Z,64.98
2022-10-20T09:01:01.225Z,59.94
2022-10-20T09:11:04.820Z,55.08
2022-10-20T09:21:21.990Z,51.38
2022-10-20T09:31:33.154Z,49.47
2022-10-20T09:41:36.094Z,48.21
2022-10-20T09:51:37.750Z,45.10
2022-10-20T10:01:56.790Z,44.26
2022-10-20T10:12:14.365Z,42.06
2022-10-20T10:22:17.120Z,38.89
2022-10-20T10:32:23.117Z,37.64
2022-10-20T10:42:48.683Z,37.71
2022-10-20T10:53:04.922Z,35.68
2022-10-20T11:03:12.108Z,38.71
2022-10-20T11:13:33.927Z,34.48
2022-10-20T11:23:52.123Z,40.27
2022-10-20T11:34:17.167Z,45.12
2022-10-20T11:44:35.114Z,29.89
2022-10-20T11:55:13.841Z,39.68
2022-10-20T12:05:21.849Z,27.39
2022-10-20T12:15:30.890Z,29.95
2022-10-20T12:25:41.490Z,31.17
2022-10-20T12:36:07.861Z,24.03
2022-10-20T12:46:16.165Z,38.59
2022-10-20T12:56:21.831Z,23.13
2022-10-20T13:06:30.682Z,24.99
2022-10-20T13:16:34.094Z,20.41
2022-10-20T13:26:47.544Z,24.29
2022-10-20T13:37:01.327Z,22.90
2022-10-20T13:47:27.118Z,21.60
2022-10-20T13:57:35.004Z,20.42
2022-10-20T14:07:43.164Z,22.86
2022-10-20T14:17:55.781Z,22.57
2022-10-20T14:27:58.631Z,27.29
2022-10-20T14:38:09.962Z,34.92
2022-10-20T14:48:15.505Z,42.86
2022-10-20T14:58:47.705Z,47.42
2022-10-20T15:08:57.882Z,48.58
2022-10-20T15:19:25.863Z,53.03
2022-10-20T15:29:27.877Z,55.42
2022-10-20T15:39:32.731Z,57.39
2022-10-20T15:49:34.674Z,61.35
2022-10-20T15:59:36.775Z,67.70
2022-10-20T16:09:39.519Z,73.54
2022-10-20T16:19:41.104Z,78.69
2022-10-20T16:29:45.172Z,88.79
2022-10-20T16:39:50.250Z,91.34
2022-10-20T16:50:01.257Z,98.25
2022-10-20T17:00:04.097Z,100.00
2022-10-20T17:10:06.952Z,100.00
2022-10-20T17:20:09.389Z,100.00
2022-10-20T17:30:12.269Z,100.00
2022-10-20T17:40:14.527Z,100.00
2022-10-20T17:50:17.427Z,100.00
2022-10-20T18:00:26.987Z,100.00
2022-10-20T18:10:45.872Z,100.00
2022-10-20T18:20:56.967Z,100.00
2022-10-20T18:31:12.838Z,100.00
2022-10-20T18:41:19.463Z,100.00
2022-10-20T18:51:22.687Z,100.00
2022-10-20T19:01:30.604Z,100.00
2022-10-20T19:11:37.592Z,100.00
2022-10-20T19:21:41.201Z,100.00
2022-10-20T19:31:49.961Z,100.00
2022-10-20T19:41:52.932Z,100.00
2022-10-20T19:51:56.041Z,100.00
2022-10-20T20:02:12.516Z,100.00
2022-10-20T20:12:16.231Z,100.00
2022-10-20T20:22:19.234Z,100.00
2022-10-20T20:32:20.905Z,100.00
2022-10-20T20:42:22.699Z,100.00
2022-10-20T20:52:24.620Z,100.00
2022-10-20T21:02:26.237Z,100.00
2022-10-20T21:12:29.648Z,100.00
2022-10-20T21:22:33.474Z,100.00
2022-10-20T21:32:35.426Z,100.00
2022-10-20T21:42:37.708Z,100.00
2022-10-20T21:52:39.824Z,100.00
2022-10-20T22:02:42.906Z,100.00
2022-10-20T22:12:44.511Z,100.00
2022-10-20T22:22:48.191Z,100.00
2022-10-20T22:32:50.932Z,100.00
2022-10-20T22:42:52.853Z,100.00
2022-10-20T22:52:56.560Z,100.00
2022-10-20T23:02:58.180Z,100.00
2022-10-20T23:13:03.876Z,100.00
2022-10-20T23:23:05.435Z,100.00
2022-10-20T23:33:07.114Z,100.00
2022-10-20T23:43:08.810Z,100.00
2022-10-20T23:53:34.185Z,100.00
